sensor_id;sensor_type;location;lat;lon;timestamp;temperature;humidity
5172;DHT22;2605;49.770;9.868;2023-04-29T00:00:00;11.70;99.90
5172;DHT22;2605;49.770;9.868;2023-04-29T00:02:26;11.70;99.90
5172;DHT22;2605;49.770;9.868;2023-04-29T00:04:52;11.60;99.90
5172;DHT22;2605;49.770;9.868;2023-04-29T00:07:18;11.60;99.90
5172;DHT22;2605;49.770;9.868;2023-04-29T00:09:44;11.60;99.90
5172;DHT22;2605;49.770;9.868;2023-04-29T00:12:09;11.60;99.90
5172;DHT22;2605;49.770;9.868;2023-04-29T00:14:35;11.50;99.90
5172;DHT22;2605;49.770;9.868;2023-04-29T00:17:01;11.40;99.90
5172;DHT22;2605;49.770;9.868;2023-04-29T00:19:26;11.40;99.90
5172;DHT22;2605;49.770;9.868;2023-04-29T00:21:53;11.30;99.90
5172;DHT22;2605;49.770;9.868;2023-04-29T00:24:19;11.30;99.90
5172;DHT22;2605;49.770;9.868;2023-04-29T00:26:44;11.20;99.90
5172;DHT22;2605;49.770;9.868;2023-04-29T00:29:10;11.10;99.90
5172;DHT22;2605;49.770;9.868;2023-04-29T00:31:36;11.10;99.90
5172;DHT22;2605;49.770;9.868;2023-04-29T00:34:02;11.20;99.90
5172;DHT22;2605;49.770;9.868;2023-04-29T00:36:27;11.20;99.90
5172;DHT22;2605;49.770;9.868;2023-04-29T00:38:53;11.20;99.90
5172;DHT22;2605;49.770;9.868;2023-04-29T00:41:19;11.20;99.90
5172;DHT22;2605;49.770;9.868;2023-04-29T00:43:45;11.20;99.90
5172;DHT22;2605;49.770;9.868;2023-04-29T00:46:10;11.20;99.90
5172;DHT22;2605;49.770;9.868;2023-04-29T00:48:36;11.20;99.90
5172;DHT22;2605;49.770;9.868;2023-04-29T00:51:02;11.20;99.90
5172;DHT22;2605;49.770;9.868;2023-04-29T00:53:30;11.20;99.90
5172;DHT22;2605;49.770;9.868;2023-04-29T00:55:55;11.30;99.90
5172;DHT22;2605;49.770;9.868;2023-04-29T00:58:21;11.20;99.90
5172;DHT22;2605;49.770;9.868;2023-04-29T01:00:48;11.20;99.90
5172;DHT22;2605;49.770;9.868;2023-04-29T01:03:14;11.10;99.90
5172;DHT22;2605;49.770;9.868;2023-04-29T01:05:40;11.10;99.90
5172;DHT22;2605;49.770;9.868;2023-04-29T01:08:29;11.00;99.90
5172;DHT22;2605;49.770;9.868;2023-04-29T01:11:07;10.90;99.90
5172;DHT22;2605;49.770;9.868;2023-04-29T01:16:10;10.80;99.90
5172;DHT22;2605;49.770;9.868;2023-04-29T01:18:48;10.70;99.90
5172;DHT22;2605;49.770;9.868;2023-04-29T01:21:14;10.70;99.90
5172;DHT22;2605;49.770;9.868;2023-04-29T01:23:40;10.70;99.90
5172;DHT22;2605;49.770;9.868;2023-04-29T01:26:05;10.60;99.90
5172;DHT22;2605;49.770;9.868;2023-04-29T01:31:35;10.60;99.90
5172;DHT22;2605;49.770;9.868;2023-04-29T01:34:18;10.60;99.90
5172;DHT22;2605;49.770;9.868;2023-04-29T01:37:00;10.70;99.90
5172;DHT22;2605;49.770;9.868;2023-04-29T01:39:57;10.70;99.90
5172;DHT22;2605;49.770;9.868;2023-04-29T01:45:37;10.70;99.90
5172;DHT22;2605;49.770;9.868;2023-04-29T01:48:06;10.70;99.90
5172;DHT22;2605;49.770;9.868;2023-04-29T01:50:32;10.70;99.90
5172;DHT22;2605;49.770;9.868;2023-04-29T01:52:57;10.60;99.90
5172;DHT22;2605;49.770;9.868;2023-04-29T01:55:23;10.50;99.90
5172;DHT22;2605;49.770;9.868;2023-04-29T01:57:51;10.50;99.90
5172;DHT22;2605;49.770;9.868;2023-04-29T02:00:17;10.50;99.90
5172;DHT22;2605;49.770;9.868;2023-04-29T02:02:42;10.50;99.90
5172;DHT22;2605;49.770;9.868;2023-04-29T02:05:08;10.40;99.90
5172;DHT22;2605;49.770;9.868;2023-04-29T02:07:34;10.40;99.90
5172;DHT22;2605;49.770;9.868;2023-04-29T02:09:59;10.40;99.90
5172;DHT22;2605;49.770;9.868;2023-04-29T02:12:25;10.40;99.90
5172;DHT22;2605;49.770;9.868;2023-04-29T02:14:53;10.50;99.90
5172;DHT22;2605;49.770;9.868;2023-04-29T02:17:19;10.50;99.90
5172;DHT22;2605;49.770;9.868;2023-04-29T02:19:45;10.50;99.90
5172;DHT22;2605;49.770;9.868;2023-04-29T02:22:10;10.50;99.90
5172;DHT22;2605;49.770;9.868;2023-04-29T02:24:37;10.50;99.90
5172;DHT22;2605;49.770;9.868;2023-04-29T02:27:03;10.60;99.90
5172;DHT22;2605;49.770;9.868;2023-04-29T02:29:30;10.70;99.90
5172;DHT22;2605;49.770;9.868;2023-04-29T02:31:56;10.70;99.90
5172;DHT22;2605;49.770;9.868;2023-04-29T02:34:21;10.70;99.90
5172;DHT22;2605;49.770;9.868;2023-04-29T02:36:48;10.70;99.90
5172;DHT22;2605;49.770;9.868;2023-04-29T02:39:14;10.70;99.90
5172;DHT22;2605;49.770;9.868;2023-04-29T02:41:39;10.70;99.90
5172;DHT22;2605;49.770;9.868;2023-04-29T02:44:06;10.80;99.90
5172;DHT22;2605;49.770;9.868;2023-04-29T02:46:31;10.80;99.90
5172;DHT22;2605;49.770;9.868;2023-04-29T02:48:59;10.80;99.90
5172;DHT22;2605;49.770;9.868;2023-04-29T02:51:25;10.70;99.90
5172;DHT22;2605;49.770;9.868;2023-04-29T02:53:52;10.70;99.90
5172;DHT22;2605;49.770;9.868;2023-04-29T02:56:17;10.70;99.90
5172;DHT22;2605;49.770;9.868;2023-04-29T02:58:43;10.60;99.90
5172;DHT22;2605;49.770;9.868;2023-04-29T03:01:08;10.50;99.90
5172;DHT22;2605;49.770;9.868;2023-04-29T03:03:34;10.50;99.90
5172;DHT22;2605;49.770;9.868;2023-04-29T03:05:59;10.50;99.90
5172;DHT22;2605;49.770;9.868;2023-04-29T03:08:24;10.50;99.90
5172;DHT22;2605;49.770;9.868;2023-04-29T03:10:50;10.50;99.90
5172;DHT22;2605;49.770;9.868;2023-04-29T03:13:16;10.50;99.90
5172;DHT22;2605;49.770;9.868;2023-04-29T03:15:41;10.50;99.90
5172;DHT22;2605;49.770;9.868;2023-04-29T03:18:07;10.60;99.90
5172;DHT22;2605;49.770;9.868;2023-04-29T03:20:34;10.60;99.90
5172;DHT22;2605;49.770;9.868;2023-04-29T03:22:59;10.50;99.90
5172;DHT22;2605;49.770;9.868;2023-04-29T03:25:25;10.50;99.90
5172;DHT22;2605;49.770;9.868;2023-04-29T03:27:50;10.50;99.90
5172;DHT22;2605;49.770;9.868;2023-04-29T03:30:16;10.50;99.90
5172;DHT22;2605;49.770;9.868;2023-04-29T03:32:41;10.60;99.90
5172;DHT22;2605;49.770;9.868;2023-04-29T03:35:07;10.60;99.90
5172;DHT22;2605;49.770;9.868;2023-04-29T03:37:33;10.70;99.90
5172;DHT22;2605;49.770;9.868;2023-04-29T03:39:58;10.70;99.90
5172;DHT22;2605;49.770;9.868;2023-04-29T03:42:24;10.70;99.90
5172;DHT22;2605;49.770;9.868;2023-04-29T03:44:49;10.70;99.90
5172;DHT22;2605;49.770;9.868;2023-04-29T03:47:15;10.70;99.90
5172;DHT22;2605;49.770;9.868;2023-04-29T03:49:40;10.70;99.90
5172;DHT22;2605;49.770;9.868;2023-04-29T03:52:06;10.70;99.90
5172;DHT22;2605;49.770;9.868;2023-04-29T03:54:31;10.70;99.90
5172;DHT22;2605;49.770;9.868;2023-04-29T03:56:57;10.70;99.90
5172;DHT22;2605;49.770;9.868;2023-04-29T03:59:22;10.70;99.90
5172;DHT22;2605;49.770;9.868;2023-04-29T04:01:48;10.80;99.90
5172;DHT22;2605;49.770;9.868;2023-04-29T04:04:13;10.80;99.90
5172;DHT22;2605;49.770;9.868;2023-04-29T04:06:39;10.80;99.90
5172;DHT22;2605;49.770;9.868;2023-04-29T04:09:05;10.80;99.90
5172;DHT22;2605;49.770;9.868;2023-04-29T04:11:30;10.90;99.90
5172;DHT22;2605;49.770;9.868;2023-04-29T04:13:56;10.90;99.90
5172;DHT22;2605;49.770;9.868;2023-04-29T04:16:21;10.90;99.90
5172;DHT22;2605;49.770;9.868;2023-04-29T04:18:47;10.90;99.90
5172;DHT22;2605;49.770;9.868;2023-04-29T04:21:12;10.90;99.90
5172;DHT22;2605;49.770;9.868;2023-04-29T04:23:38;10.90;99.90
5172;DHT22;2605;49.770;9.868;2023-04-29T04:26:09;10.80;99.90
5172;DHT22;2605;49.770;9.868;2023-04-29T04:28:35;10.80;99.90
5172;DHT22;2605;49.770;9.868;2023-04-29T04:31:00;10.80;99.90
5172;DHT22;2605;49.770;9.868;2023-04-29T04:33:26;10.70;99.90
5172;DHT22;2605;49.770;9.868;2023-04-29T04:35:52;10.70;99.90
5172;DHT22;2605;49.770;9.868;2023-04-29T04:38:18;10.80;99.90
5172;DHT22;2605;49.770;9.868;2023-04-29T04:40:43;10.80;99.90
5172;DHT22;2605;49.770;9.868;2023-04-29T04:43:09;10.70;99.90
5172;DHT22;2605;49.770;9.868;2023-04-29T04:45:35;10.70;99.90
5172;DHT22;2605;49.770;9.868;2023-04-29T04:48:01;10.70;99.90
5172;DHT22;2605;49.770;9.868;2023-04-29T04:50:27;10.70;99.90
5172;DHT22;2605;49.770;9.868;2023-04-29T04:52:56;10.70;99.90
5172;DHT22;2605;49.770;9.868;2023-04-29T04:55:22;10.70;99.90
5172;DHT22;2605;49.770;9.868;2023-04-29T04:57:48;10.80;99.90
5172;DHT22;2605;49.770;9.868;2023-04-29T05:00:13;10.90;99.90
5172;DHT22;2605;49.770;9.868;2023-04-29T05:02:42;10.90;99.90
5172;DHT22;2605;49.770;9.868;2023-04-29T05:05:07;10.90;99.90
5172;DHT22;2605;49.770;9.868;2023-04-29T05:07:33;10.90;99.90
5172;DHT22;2605;49.770;9.868;2023-04-29T05:10:02;11.00;99.90
5172;DHT22;2605;49.770;9.868;2023-04-29T05:12:28;11.00;99.90
5172;DHT22;2605;49.770;9.868;2023-04-29T05:14:55;11.00;99.90
5172;DHT22;2605;49.770;9.868;2023-04-29T05:17:21;11.10;99.90
5172;DHT22;2605;49.770;9.868;2023-04-29T05:19:46;11.10;99.90
5172;DHT22;2605;49.770;9.868;2023-04-29T05:22:12;11.10;99.90
5172;DHT22;2605;49.770;9.868;2023-04-29T05:24:37;11.10;99.90
5172;DHT22;2605;49.770;9.868;2023-04-29T05:27:03;11.10;99.90
5172;DHT22;2605;49.770;9.868;2023-04-29T05:29:29;11.10;99.90
5172;DHT22;2605;49.770;9.868;2023-04-29T05:31:54;11.20;99.90
5172;DHT22;2605;49.770;9.868;2023-04-29T05:34:20;11.20;99.90
5172;DHT22;2605;49.770;9.868;2023-04-29T05:36:45;11.30;99.90
5172;DHT22;2605;49.770;9.868;2023-04-29T05:39:11;11.30;99.90
5172;DHT22;2605;49.770;9.868;2023-04-29T05:41:36;11.30;99.90
5172;DHT22;2605;49.770;9.868;2023-04-29T05:44:02;11.30;99.90
5172;DHT22;2605;49.770;9.868;2023-04-29T05:46:27;11.30;99.90
5172;DHT22;2605;49.770;9.868;2023-04-29T05:48:53;11.30;99.90
5172;DHT22;2605;49.770;9.868;2023-04-29T05:51:18;11.30;99.90
5172;DHT22;2605;49.770;9.868;2023-04-29T05:53:44;11.30;99.90
5172;DHT22;2605;49.770;9.868;2023-04-29T05:56:09;11.30;99.90
5172;DHT22;2605;49.770;9.868;2023-04-29T05:58:35;11.30;99.90
5172;DHT22;2605;49.770;9.868;2023-04-29T06:01:01;11.40;99.90
5172;DHT22;2605;49.770;9.868;2023-04-29T06:03:27;11.40;99.90
5172;DHT22;2605;49.770;9.868;2023-04-29T06:05:53;11.50;99.90
5172;DHT22;2605;49.770;9.868;2023-04-29T06:08:18;11.50;99.90
5172;DHT22;2605;49.770;9.868;2023-04-29T06:10:44;11.50;99.90
5172;DHT22;2605;49.770;9.868;2023-04-29T06:13:10;11.60;99.90
5172;DHT22;2605;49.770;9.868;2023-04-29T06:15:36;11.60;99.90
5172;DHT22;2605;49.770;9.868;2023-04-29T06:18:01;11.60;99.90
5172;DHT22;2605;49.770;9.868;2023-04-29T06:20:27;11.50;99.90
5172;DHT22;2605;49.770;9.868;2023-04-29T06:22:52;11.60;99.90
5172;DHT22;2605;49.770;9.868;2023-04-29T06:25:18;11.60;99.90
5172;DHT22;2605;49.770;9.868;2023-04-29T06:27:43;11.70;99.90
5172;DHT22;2605;49.770;9.868;2023-04-29T06:30:09;11.70;99.90
5172;DHT22;2605;49.770;9.868;2023-04-29T06:32:36;11.60;99.90
5172;DHT22;2605;49.770;9.868;2023-04-29T06:35:02;11.70;99.90
5172;DHT22;2605;49.770;9.868;2023-04-29T06:37:28;11.80;99.90
5172;DHT22;2605;49.770;9.868;2023-04-29T06:39:53;11.80;99.90
5172;DHT22;2605;49.770;9.868;2023-04-29T06:42:19;11.80;99.90
5172;DHT22;2605;49.770;9.868;2023-04-29T06:44:44;11.90;99.90
5172;DHT22;2605;49.770;9.868;2023-04-29T06:47:10;12.00;99.90
5172;DHT22;2605;49.770;9.868;2023-04-29T06:49:35;12.20;99.90
5172;DHT22;2605;49.770;9.868;2023-04-29T06:52:01;12.10;99.90
5172;DHT22;2605;49.770;9.868;2023-04-29T06:54:27;12.10;99.90
5172;DHT22;2605;49.770;9.868;2023-04-29T06:56:53;12.30;99.90
5172;DHT22;2605;49.770;9.868;2023-04-29T06:59:18;12.20;99.90
5172;DHT22;2605;49.770;9.868;2023-04-29T07:01:44;12.20;99.90
5172;DHT22;2605;49.770;9.868;2023-04-29T07:04:09;12.00;99.90
5172;DHT22;2605;49.770;9.868;2023-04-29T07:06:36;11.90;99.90
5172;DHT22;2605;49.770;9.868;2023-04-29T07:09:01;11.80;99.90
5172;DHT22;2605;49.770;9.868;2023-04-29T07:11:27;11.70;99.90
5172;DHT22;2605;49.770;9.868;2023-04-29T07:13:53;11.70;99.90
5172;DHT22;2605;49.770;9.868;2023-04-29T07:16:18;11.70;99.90
5172;DHT22;2605;49.770;9.868;2023-04-29T07:18:49;11.60;99.90
5172;DHT22;2605;49.770;9.868;2023-04-29T07:21:14;11.60;99.90
5172;DHT22;2605;49.770;9.868;2023-04-29T07:23:40;11.60;99.90
5172;DHT22;2605;49.770;9.868;2023-04-29T07:26:12;11.80;99.90
5172;DHT22;2605;49.770;9.868;2023-04-29T07:28:38;11.90;99.90
5172;DHT22;2605;49.770;9.868;2023-04-29T07:31:05;12.20;99.90
5172;DHT22;2605;49.770;9.868;2023-04-29T07:33:30;12.30;99.90
5172;DHT22;2605;49.770;9.868;2023-04-29T07:35:56;12.50;99.90
5172;DHT22;2605;49.770;9.868;2023-04-29T07:38:21;12.80;99.90
5172;DHT22;2605;49.770;9.868;2023-04-29T07:40:47;12.90;99.90
5172;DHT22;2605;49.770;9.868;2023-04-29T07:43:12;13.10;99.90
5172;DHT22;2605;49.770;9.868;2023-04-29T07:45:38;13.10;99.90
5172;DHT22;2605;49.770;9.868;2023-04-29T07:48:04;13.20;99.90
5172;DHT22;2605;49.770;9.868;2023-04-29T07:50:30;13.30;99.90
5172;DHT22;2605;49.770;9.868;2023-04-29T07:52:58;13.20;99.90
5172;DHT22;2605;49.770;9.868;2023-04-29T07:55:24;13.20;99.90
5172;DHT22;2605;49.770;9.868;2023-04-29T07:57:51;13.20;99.90
5172;DHT22;2605;49.770;9.868;2023-04-29T08:00:17;13.30;99.90
5172;DHT22;2605;49.770;9.868;2023-04-29T08:02:43;13.30;99.90
5172;DHT22;2605;49.770;9.868;2023-04-29T08:05:09;13.50;99.90
5172;DHT22;2605;49.770;9.868;2023-04-29T08:07:34;13.30;99.90
5172;DHT22;2605;49.770;9.868;2023-04-29T08:10:00;13.40;99.90
5172;DHT22;2605;49.770;9.868;2023-04-29T08:12:25;13.40;99.90
5172;DHT22;2605;49.770;9.868;2023-04-29T08:14:51;13.50;99.90
5172;DHT22;2605;49.770;9.868;2023-04-29T08:17:16;13.60;99.90
5172;DHT22;2605;49.770;9.868;2023-04-29T08:19:41;13.50;99.90
5172;DHT22;2605;49.770;9.868;2023-04-29T08:22:07;13.30;99.90
5172;DHT22;2605;49.770;9.868;2023-04-29T08:24:35;13.20;99.90
5172;DHT22;2605;49.770;9.868;2023-04-29T08:27:00;13.10;99.90
5172;DHT22;2605;49.770;9.868;2023-04-29T08:29:26;13.30;99.90
5172;DHT22;2605;49.770;9.868;2023-04-29T08:31:52;13.50;99.90
5172;DHT22;2605;49.770;9.868;2023-04-29T08:34:17;13.50;99.90
5172;DHT22;2605;49.770;9.868;2023-04-29T08:36:43;13.50;99.90
5172;DHT22;2605;49.770;9.868;2023-04-29T08:39:08;13.50;99.90
5172;DHT22;2605;49.770;9.868;2023-04-29T08:41:35;13.60;99.90
5172;DHT22;2605;49.770;9.868;2023-04-29T08:44:01;13.60;99.90
5172;DHT22;2605;49.770;9.868;2023-04-29T08:46:26;13.50;99.90
5172;DHT22;2605;49.770;9.868;2023-04-29T08:48:53;13.70;99.90
5172;DHT22;2605;49.770;9.868;2023-04-29T08:51:20;13.60;99.90
5172;DHT22;2605;49.770;9.868;2023-04-29T08:53:46;13.60;99.90
5172;DHT22;2605;49.770;9.868;2023-04-29T08:56:17;13.80;99.90
5172;DHT22;2605;49.770;9.868;2023-04-29T08:58:46;14.00;99.90
5172;DHT22;2605;49.770;9.868;2023-04-29T09:01:16;14.10;99.90
5172;DHT22;2605;49.770;9.868;2023-04-29T09:03:43;14.40;99.90
5172;DHT22;2605;49.770;9.868;2023-04-29T09:06:11;14.30;99.90
5172;DHT22;2605;49.770;9.868;2023-04-29T09:08:38;14.00;99.90
5172;DHT22;2605;49.770;9.868;2023-04-29T09:11:08;13.90;99.90
5172;DHT22;2605;49.770;9.868;2023-04-29T09:13:34;13.90;99.90
5172;DHT22;2605;49.770;9.868;2023-04-29T09:16:03;14.00;99.90
5172;DHT22;2605;49.770;9.868;2023-04-29T09:18:50;13.80;99.90
5172;DHT22;2605;49.770;9.868;2023-04-29T09:21:27;13.80;99.90
5172;DHT22;2605;49.770;9.868;2023-04-29T09:23:58;14.00;99.90
5172;DHT22;2605;49.770;9.868;2023-04-29T09:26:24;13.70;99.90
5172;DHT22;2605;49.770;9.868;2023-04-29T09:29:12;13.80;99.90
5172;DHT22;2605;49.770;9.868;2023-04-29T09:31:39;14.10;99.90
5172;DHT22;2605;49.770;9.868;2023-04-29T09:34:05;14.20;99.90
5172;DHT22;2605;49.770;9.868;2023-04-29T09:36:45;14.20;99.90
5172;DHT22;2605;49.770;9.868;2023-04-29T09:39:15;14.10;99.90
5172;DHT22;2605;49.770;9.868;2023-04-29T09:44:30;13.40;99.90
5172;DHT22;2605;49.770;9.868;2023-04-29T09:47:01;13.30;99.90
5172;DHT22;2605;49.770;9.868;2023-04-29T09:49:32;13.40;99.90
5172;DHT22;2605;49.770;9.868;2023-04-29T09:52:01;13.50;99.90
5172;DHT22;2605;49.770;9.868;2023-04-29T09:54:28;13.30;99.90
5172;DHT22;2605;49.770;9.868;2023-04-29T09:56:57;13.40;99.90
5172;DHT22;2605;49.770;9.868;2023-04-29T09:59:23;13.60;99.90
5172;DHT22;2605;49.770;9.868;2023-04-29T10:01:50;13.70;99.90
5172;DHT22;2605;49.770;9.868;2023-04-29T10:04:18;13.80;99.90
5172;DHT22;2605;49.770;9.868;2023-04-29T10:06:45;13.80;99.90
5172;DHT22;2605;49.770;9.868;2023-04-29T10:09:13;13.80;99.90
5172;DHT22;2605;49.770;9.868;2023-04-29T10:11:49;13.90;99.90
5172;DHT22;2605;49.770;9.868;2023-04-29T10:14:16;13.90;99.90
5172;DHT22;2605;49.770;9.868;2023-04-29T10:19:18;13.70;99.90
5172;DHT22;2605;49.770;9.868;2023-04-29T10:21:48;13.80;99.90
5172;DHT22;2605;49.770;9.868;2023-04-29T10:24:16;13.90;99.90
5172;DHT22;2605;49.770;9.868;2023-04-29T10:26:43;13.90;99.90
5172;DHT22;2605;49.770;9.868;2023-04-29T10:29:10;14.00;99.90
5172;DHT22;2605;49.770;9.868;2023-04-29T10:31:39;13.90;99.90
5172;DHT22;2605;49.770;9.868;2023-04-29T10:34:05;13.70;99.90
5172;DHT22;2605;49.770;9.868;2023-04-29T10:36:32;13.50;99.90
5172;DHT22;2605;49.770;9.868;2023-04-29T10:39:02;13.40;99.90
5172;DHT22;2605;49.770;9.868;2023-04-29T10:41:43;13.40;99.90
5172;DHT22;2605;49.770;9.868;2023-04-29T10:44:20;13.40;99.90
5172;DHT22;2605;49.770;9.868;2023-04-29T10:47:19;13.20;99.90
5172;DHT22;2605;49.770;9.868;2023-04-29T10:50:05;13.20;99.90
5172;DHT22;2605;49.770;9.868;2023-04-29T10:52:50;13.10;99.90
5172;DHT22;2605;49.770;9.868;2023-04-29T10:55:15;13.00;99.90
5172;DHT22;2605;49.770;9.868;2023-04-29T10:57:41;13.00;99.90
5172;DHT22;2605;49.770;9.868;2023-04-29T11:00:20;12.90;99.90
5172;DHT22;2605;49.770;9.868;2023-04-29T11:02:46;13.00;99.90
5172;DHT22;2605;49.770;9.868;2023-04-29T11:05:12;13.10;99.90
5172;DHT22;2605;49.770;9.868;2023-04-29T11:07:37;13.10;99.90
5172;DHT22;2605;49.770;9.868;2023-04-29T11:10:03;13.40;99.90
5172;DHT22;2605;49.770;9.868;2023-04-29T11:12:29;13.70;99.90
5172;DHT22;2605;49.770;9.868;2023-04-29T11:14:57;13.90;99.90
5172;DHT22;2605;49.770;9.868;2023-04-29T11:17:34;14.00;99.90
5172;DHT22;2605;49.770;9.868;2023-04-29T11:20:00;14.30;99.90
5172;DHT22;2605;49.770;9.868;2023-04-29T11:22:27;14.00;99.90
5172;DHT22;2605;49.770;9.868;2023-04-29T11:24:56;13.80;99.90
5172;DHT22;2605;49.770;9.868;2023-04-29T11:27:25;13.80;99.90
5172;DHT22;2605;49.770;9.868;2023-04-29T11:29:53;13.70;99.90
5172;DHT22;2605;49.770;9.868;2023-04-29T11:32:23;13.60;99.90
5172;DHT22;2605;49.770;9.868;2023-04-29T11:34:50;13.60;99.90
5172;DHT22;2605;49.770;9.868;2023-04-29T11:37:25;13.50;99.90
5172;DHT22;2605;49.770;9.868;2023-04-29T11:40:00;13.50;99.90
5172;DHT22;2605;49.770;9.868;2023-04-29T11:42:26;13.50;99.90
5172;DHT22;2605;49.770;9.868;2023-04-29T11:44:53;13.50;99.90
5172;DHT22;2605;49.770;9.868;2023-04-29T11:47:27;13.50;99.90
5172;DHT22;2605;49.770;9.868;2023-04-29T11:50:04;13.60;99.90
5172;DHT22;2605;49.770;9.868;2023-04-29T11:52:31;13.60;99.90
5172;DHT22;2605;49.770;9.868;2023-04-29T11:54:57;13.60;99.90
5172;DHT22;2605;49.770;9.868;2023-04-29T11:57:27;13.50;99.90
5172;DHT22;2605;49.770;9.868;2023-04-29T11:59:52;13.30;99.90
5172;DHT22;2605;49.770;9.868;2023-04-29T12:02:28;13.20;99.90
5172;DHT22;2605;49.770;9.868;2023-04-29T12:04:53;13.20;99.90
5172;DHT22;2605;49.770;9.868;2023-04-29T12:07:19;13.10;99.90
5172;DHT22;2605;49.770;9.868;2023-04-29T12:09:45;13.20;99.90
5172;DHT22;2605;49.770;9.868;2023-04-29T12:12:13;13.10;99.90
5172;DHT22;2605;49.770;9.868;2023-04-29T12:14:39;13.10;99.90
5172;DHT22;2605;49.770;9.868;2023-04-29T12:17:05;13.20;99.90
5172;DHT22;2605;49.770;9.868;2023-04-29T12:19:32;13.10;99.90
5172;DHT22;2605;49.770;9.868;2023-04-29T12:21:58;13.20;99.90
5172;DHT22;2605;49.770;9.868;2023-04-29T12:24:24;13.20;99.90
5172;DHT22;2605;49.770;9.868;2023-04-29T12:26:51;13.20;99.90
5172;DHT22;2605;49.770;9.868;2023-04-29T12:29:20;13.40;99.90
5172;DHT22;2605;49.770;9.868;2023-04-29T12:31:46;13.60;99.90
5172;DHT22;2605;49.770;9.868;2023-04-29T12:34:12;13.90;99.90
5172;DHT22;2605;49.770;9.868;2023-04-29T12:36:41;14.20;99.90
5172;DHT22;2605;49.770;9.868;2023-04-29T12:39:06;14.50;99.90
5172;DHT22;2605;49.770;9.868;2023-04-29T12:41:40;14.50;99.90
5172;DHT22;2605;49.770;9.868;2023-04-29T12:44:07;15.10;99.90
5172;DHT22;2605;49.770;9.868;2023-04-29T12:46:39;15.00;99.90
5172;DHT22;2605;49.770;9.868;2023-04-29T12:49:06;15.30;99.90
5172;DHT22;2605;49.770;9.868;2023-04-29T12:51:33;15.50;99.90
5172;DHT22;2605;49.770;9.868;2023-04-29T12:54:00;15.40;99.90
5172;DHT22;2605;49.770;9.868;2023-04-29T12:56:26;15.20;99.90
5172;DHT22;2605;49.770;9.868;2023-04-29T12:58:52;15.00;99.90
5172;DHT22;2605;49.770;9.868;2023-04-29T13:01:20;14.80;99.90
5172;DHT22;2605;49.770;9.868;2023-04-29T13:03:46;14.50;99.90
5172;DHT22;2605;49.770;9.868;2023-04-29T13:06:11;14.20;99.90
5172;DHT22;2605;49.770;9.868;2023-04-29T13:08:37;14.00;99.90
5172;DHT22;2605;49.770;9.868;2023-04-29T13:11:02;14.00;99.90
5172;DHT22;2605;49.770;9.868;2023-04-29T13:13:28;14.00;99.90
5172;DHT22;2605;49.770;9.868;2023-04-29T13:15:53;13.80;99.90
5172;DHT22;2605;49.770;9.868;2023-04-29T13:18:19;13.70;99.90
5172;DHT22;2605;49.770;9.868;2023-04-29T13:20:44;13.80;99.90
5172;DHT22;2605;49.770;9.868;2023-04-29T13:23:10;13.60;99.90
5172;DHT22;2605;49.770;9.868;2023-04-29T13:25:42;13.50;99.90
5172;DHT22;2605;49.770;9.868;2023-04-29T13:28:10;13.50;99.90
5172;DHT22;2605;49.770;9.868;2023-04-29T13:30:36;13.30;99.90
5172;DHT22;2605;49.770;9.868;2023-04-29T13:33:04;13.40;99.90
5172;DHT22;2605;49.770;9.868;2023-04-29T13:35:30;13.60;99.90
5172;DHT22;2605;49.770;9.868;2023-04-29T13:37:55;13.60;99.90
5172;DHT22;2605;49.770;9.868;2023-04-29T13:40:21;13.80;99.90
5172;DHT22;2605;49.770;9.868;2023-04-29T13:42:47;13.80;99.90
5172;DHT22;2605;49.770;9.868;2023-04-29T13:45:13;13.90;99.90
5172;DHT22;2605;49.770;9.868;2023-04-29T13:47:39;14.10;99.90
5172;DHT22;2605;49.770;9.868;2023-04-29T13:50:05;14.50;99.90
5172;DHT22;2605;49.770;9.868;2023-04-29T13:52:31;14.90;99.90
5172;DHT22;2605;49.770;9.868;2023-04-29T13:54:57;15.30;99.90
5172;DHT22;2605;49.770;9.868;2023-04-29T13:57:22;15.70;99.90
5172;DHT22;2605;49.770;9.868;2023-04-29T13:59:48;16.90;99.90
5172;DHT22;2605;49.770;9.868;2023-04-29T14:02:17;16.80;99.90
5172;DHT22;2605;49.770;9.868;2023-04-29T14:04:42;16.20;99.90
5172;DHT22;2605;49.770;9.868;2023-04-29T14:07:08;15.80;99.90
5172;DHT22;2605;49.770;9.868;2023-04-29T14:09:33;15.30;99.90
5172;DHT22;2605;49.770;9.868;2023-04-29T14:11:59;14.70;99.90
5172;DHT22;2605;49.770;9.868;2023-04-29T14:14:24;14.20;99.90
5172;DHT22;2605;49.770;9.868;2023-04-29T14:16:49;14.10;99.90
5172;DHT22;2605;49.770;9.868;2023-04-29T14:19:15;13.80;99.90
5172;DHT22;2605;49.770;9.868;2023-04-29T14:21:40;13.60;99.90
5172;DHT22;2605;49.770;9.868;2023-04-29T14:24:06;13.50;99.90
5172;DHT22;2605;49.770;9.868;2023-04-29T14:26:31;13.40;99.90
5172;DHT22;2605;49.770;9.868;2023-04-29T14:28:58;13.30;99.90
5172;DHT22;2605;49.770;9.868;2023-04-29T14:31:28;13.20;99.90
5172;DHT22;2605;49.770;9.868;2023-04-29T14:33:54;13.20;99.90
5172;DHT22;2605;49.770;9.868;2023-04-29T14:36:20;13.30;99.90
5172;DHT22;2605;49.770;9.868;2023-04-29T14:38:46;13.20;99.90
5172;DHT22;2605;49.770;9.868;2023-04-29T14:41:11;13.10;99.90
5172;DHT22;2605;49.770;9.868;2023-04-29T14:43:37;13.00;99.90
5172;DHT22;2605;49.770;9.868;2023-04-29T14:46:03;13.00;99.90
5172;DHT22;2605;49.770;9.868;2023-04-29T14:48:29;13.00;99.90
5172;DHT22;2605;49.770;9.868;2023-04-29T14:50:55;13.10;99.90
5172;DHT22;2605;49.770;9.868;2023-04-29T14:53:20;13.00;99.90
5172;DHT22;2605;49.770;9.868;2023-04-29T14:55:48;12.90;99.90
5172;DHT22;2605;49.770;9.868;2023-04-29T14:58:13;12.90;99.90
5172;DHT22;2605;49.770;9.868;2023-04-29T15:00:39;12.90;99.90
5172;DHT22;2605;49.770;9.868;2023-04-29T15:03:04;13.00;99.90
5172;DHT22;2605;49.770;9.868;2023-04-29T15:05:30;13.00;99.90
5172;DHT22;2605;49.770;9.868;2023-04-29T15:07:56;13.10;99.90
5172;DHT22;2605;49.770;9.868;2023-04-29T15:10:22;13.20;99.90
5172;DHT22;2605;49.770;9.868;2023-04-29T15:12:48;13.30;99.90
5172;DHT22;2605;49.770;9.868;2023-04-29T15:15:15;13.40;99.90
5172;DHT22;2605;49.770;9.868;2023-04-29T15:17:41;13.20;99.90
5172;DHT22;2605;49.770;9.868;2023-04-29T15:20:06;13.20;99.90
5172;DHT22;2605;49.770;9.868;2023-04-29T15:22:32;13.20;99.90
5172;DHT22;2605;49.770;9.868;2023-04-29T15:24:58;13.10;99.90
5172;DHT22;2605;49.770;9.868;2023-04-29T15:27:23;13.00;99.90
5172;DHT22;2605;49.770;9.868;2023-04-29T15:29:49;13.00;99.90
5172;DHT22;2605;49.770;9.868;2023-04-29T15:32:17;13.00;99.90
5172;DHT22;2605;49.770;9.868;2023-04-29T15:34:43;13.00;99.90
5172;DHT22;2605;49.770;9.868;2023-04-29T15:37:08;13.10;99.90
5172;DHT22;2605;49.770;9.868;2023-04-29T15:39:33;13.10;99.90
5172;DHT22;2605;49.770;9.868;2023-04-29T15:41:59;13.20;99.90
5172;DHT22;2605;49.770;9.868;2023-04-29T15:44:24;13.40;99.90
5172;DHT22;2605;49.770;9.868;2023-04-29T15:46:50;13.40;99.90
5172;DHT22;2605;49.770;9.868;2023-04-29T15:49:16;13.50;99.90
5172;DHT22;2605;49.770;9.868;2023-04-29T15:51:41;13.50;99.90
5172;DHT22;2605;49.770;9.868;2023-04-29T15:54:07;13.50;99.90
5172;DHT22;2605;49.770;9.868;2023-04-29T15:56:34;13.60;99.90
5172;DHT22;2605;49.770;9.868;2023-04-29T15:59:00;13.70;99.90
5172;DHT22;2605;49.770;9.868;2023-04-29T16:01:25;13.70;99.90
5172;DHT22;2605;49.770;9.868;2023-04-29T16:03:52;13.70;99.90
5172;DHT22;2605;49.770;9.868;2023-04-29T16:06:18;13.60;99.90
5172;DHT22;2605;49.770;9.868;2023-04-29T16:08:43;13.70;99.90
5172;DHT22;2605;49.770;9.868;2023-04-29T16:11:09;13.40;99.90
5172;DHT22;2605;49.770;9.868;2023-04-29T16:13:34;13.40;99.90